Lumen N — 3FPC4 — position and weather

sailwx.info

Track history (hours):
 
Tides and Currents Weather Stations Pressure Air Temp Water Temp Dewpoint Dewpoint Depression Visibility Wind Speed Wind Dir Waves Ship Positions

Lumen N

Last reported at 2018-Jun-20 19:40 UTC. Time now 2018-Jun-20 20:38 UTC.
Position N 31°58' W 124°04'.

Length 228 m; draft 8.2 m.

Type: Tanker. MMSI: 355364000.

Date/timePositionNaut miles runAvg speedWind from/ knotsBaromVisibWave heightAir tempDewpointWater temp
2018-Jun-20 19:40N 31°58' W 124°04'212.3
2018-Jun-20 19:30N 31°59' W 124°05'812.1
2018-Jun-20 18:50N 32°04' W 124°12'4 6.8
2018-Jun-20 18:11N 32°07' W 124°16'2913.6
2018-Jun-20 16:03N 32°30' W 124°38'1314.1
2018-Jun-20 15:08N 32°42' W 124°43'213.5
2018-Jun-20 14:59N 32°44' W 124°44'613.6
2018-Jun-20 14:30N 32°50' W 124°47'1613.5
2018-Jun-20 13:18N 33°05' W 124°54'613.2
2018-Jun-20 12:50N 33°11' W 124°56'613.5
2018-Jun-20 12:24N 33°16' W 124°59'613.5
2018-Jun-20 11:59N 33°22' W 125°01'713.4
2018-Jun-20 11:29N 33°28' W 125°04'713.5
2018-Jun-20 11:00N 33°34' W 125°07'713.2
2018-Jun-20 10:30N 33°40' W 125°09'713.2
2018-Jun-20 10:00N 33°46' W 125°12'712.8
2018-Jun-20 09:26N 33°53' W 125°15'612.9
2018-Jun-20 09:00N 33°58' W 125°18'713.0
2018-Jun-20 08:29N 34°04' W 125°21'613.0
2018-Jun-20 08:00N 34°10' W 125°23'713.4
2018-Jun-20 07:26N 34°17' W 125°26'1213.3
2018-Jun-20 06:32N 34°29' W 125°32'313.3
2018-Jun-20 06:18N 34°32' W 125°33'513.4
2018-Jun-20 05:57N 34°36' W 125°35'613.5
2018-Jun-20 05:30N 34°42' W 125°38'2313.3
2018-Jun-20 03:44N 35°04' W 125°46'4213.4
2018-Jun-20 00:37N 35°36' W 125°12'613.3
2018-Jun-20 00:10N 35°40' W 125°08'513.5
2018-Jun-19 23:49N 35°44' W 125°04'413.9
2018-Jun-19 23:30N 35°47' W 125°00'713.8
2018-Jun-19 22:59N 35°52' W 124°55'813.6
2018-Jun-19 22:24N 35°58' W 124°48'513.4
2018-Jun-19 22:00N 36°02' W 124°44'813.2
2018-Jun-19 21:22N 36°09' W 124°37'512.8
2018-Jun-19 21:00N 36°12' W 124°33'1612.6
2018-Jun-19 19:42N 36°24' W 124°20'1412.9
2018-Jun-19 18:39N 36°35' W 124°09'212.8
2018-Jun-19 18:31N 36°36' W 124°07'712.7
2018-Jun-19 17:55N 36°42' W 124°01'613.0
2018-Jun-19 17:27N 36°46' W 123°56'713.3
2018-Jun-19 16:57N 36°51' W 123°51'613.4
2018-Jun-19 16:29N 36°56' W 123°46'713.4
2018-Jun-19 15:56N 37°02' W 123°40'913.3
2018-Jun-19 15:18N 37°08' W 123°33'413.0
2018-Jun-19 15:00N 37°11' W 123°29'613.0
2018-Jun-19 14:30N 37°16' W 123°24'1613.3
2018-Jun-19 13:17N 37°28' W 123°11'513.4
2018-Jun-19 12:56N 37°32' W 123°07'613.1
2018-Jun-19 12:27N 37°36' W 123°01'613.2
2018-Jun-19 12:00N 37°39' W 122°55'713.0
2018-Jun-19 11:30N 37°43' W 122°48'612.7
2018-Jun-19 11:00N 37°46' W 122°41'611.4
2018-Jun-19 10:30N 37°47' W 122°34'611.8
2018-Jun-19 10:00N 37°50' W 122°27'510.4
2018-Jun-19 09:30N 37°47' W 122°22'2 4.0
2018-Jun-19 08:58N 37°45' W 122°20'0 0.0
2018-Jun-19 08:25N 37°45' W 122°20'0 0.1
2018-Jun-19 07:58N 37°45' W 122°20'0 0.1
2018-Jun-19 07:25N 37°45' W 122°20'0 0.2
2018-Jun-19 06:58N 37°45' W 122°20'0 0.1
2018-Jun-19 06:28N 37°45' W 122°20'0 0.0
2018-Jun-19 05:58N 37°45' W 122°20'0 0.1
2018-Jun-19 05:28N 37°45' W 122°21'0 0.0
2018-Jun-19 04:58N 37°45' W 122°21'0 0.0
2018-Jun-19 04:28N 37°45' W 122°21'0 0.0
2018-Jun-19 03:58N 37°45' W 122°21'0 0.0
2018-Jun-19 03:28N 37°45' W 122°21'0 0.1
2018-Jun-19 02:58N 37°45' W 122°20'0 0.0
2018-Jun-19 02:28N 37°45' W 122°20'0 0.2
2018-Jun-19 01:58N 37°45' W 122°20'0 0.3
2018-Jun-19 01:28N 37°45' W 122°20'0 0.0
2018-Jun-19 00:58N 37°45' W 122°20'0 0.0
2018-Jun-19 00:28N 37°45' W 122°20'0 0.0
2018-Jun-18 23:55N 37°45' W 122°20'0 0.1
2018-Jun-18 23:28N 37°45' W 122°20'2 3.9
2018-Jun-18 23:01N 37°46' W 122°22'714.1
2018-Jun-18 22:30N 37°53' W 122°25'611.3
2018-Jun-18 22:01N 37°58' W 122°26'612.4
2018-Jun-18 21:30N 38°03' W 122°21'612.0
2018-Jun-18 21:00N 38°04' W 122°13'4 0.1
2018-Jun-17 10:30N 38°02' W 122°08'3 4.1
2018-Jun-17 09:52N 38°03' W 122°11'4 9.7
2018-Jun-17 09:30N 38°04' W 122°15'4 8.5
2018-Jun-17 08:59N 38°03' W 122°21'610.2
2018-Jun-17 08:24N 37°58' W 122°26'510.8
2018-Jun-17 07:59N 37°54' W 122°26'510.2
2018-Jun-17 07:30N 37°49' W 122°24'4 8.6
2018-Jun-17 07:01N 37°45' W 122°22'1 2.6
2018-Jun-17 06:28N 37°44' W 122°21'0 0.0
2018-Jun-17 05:58N 37°44' W 122°21'0 0.1
2018-Jun-17 05:28N 37°44' W 122°21'0 0.2
2018-Jun-17 04:58N 37°44' W 122°21'0 0.2
2018-Jun-17 04:28N 37°44' W 122°21'0 0.1
2018-Jun-17 03:58N 37°44' W 122°21'0 0.1
2018-Jun-17 03:28N 37°44' W 122°21'0 0.0
2018-Jun-17 02:58N 37°44' W 122°21'0 0.0
2018-Jun-17 02:28N 37°44' W 122°21'0 0.0
2018-Jun-17 01:58N 37°44' W 122°21'0 0.0
2018-Jun-17 01:28N 37°44' W 122°21'0 0.1
2018-Jun-17 00:58N 37°44' W 122°21'0 0.0
2018-Jun-17 00:28N 37°44' W 122°21'0 0.1
2018-Jun-16 23:58N 37°44' W 122°21'0 0.1
2018-Jun-16 23:28N 37°44' W 122°21'0 0.2
2018-Jun-16 22:58N 37°44' W 122°21'0 0.1
2018-Jun-16 22:28N 37°44' W 122°21'0 0.0
2018-Jun-16 21:58N 37°44' W 122°21'0 0.0
2018-Jun-16 21:28N 37°44' W 122°21'0 0.0
2018-Jun-16 20:58N 37°44' W 122°21'0 0.0
2018-Jun-16 20:28N 37°44' W 122°21'0 0.0
2018-Jun-16 19:58N 37°44' W 122°21'0 0.0
2018-Jun-16 19:28N 37°44' W 122°21'0 0.0
2018-Jun-16 18:58N 37°44' W 122°21'0 0.0
2018-Jun-16 18:28N 37°44' W 122°21'0 0.0
2018-Jun-16 17:58N 37°44' W 122°21'0 0.1
2018-Jun-16 17:28N 37°44' W 122°21'0 0.4
2018-Jun-16 16:58N 37°44' W 122°21'0 0.1
2018-Jun-16 16:28N 37°44' W 122°21'0 0.0
2018-Jun-16 15:58N 37°44' W 122°21'0 0.0
2018-Jun-16 15:28N 37°44' W 122°21'0 0.0
2018-Jun-16 14:58N 37°44' W 122°21'0 0.0
2018-Jun-16 14:28N 37°44' W 122°21'0 0.0
2018-Jun-16 13:49N 37°44' W 122°21'0 0.0
2018-Jun-16 13:28N 37°44' W 122°21'0 0.1
2018-Jun-16 12:58N 37°44' W 122°21'0 0.0
2018-Jun-16 12:28N 37°44' W 122°21'0 0.0
2018-Jun-16 11:58N 37°44' W 122°21'0 0.0
2018-Jun-16 11:28N 37°44' W 122°21'0 0.0
2018-Jun-16 10:58N 37°44' W 122°21'0 0.1
2018-Jun-16 10:28N 37°44' W 122°21'0 0.2
2018-Jun-16 09:58N 37°44' W 122°21'0 0.3
2018-Jun-16 09:28N 37°44' W 122°21'0 0.1
2018-Jun-16 08:58N 37°44' W 122°21'0 0.1
2018-Jun-16 08:28N 37°44' W 122°21'0 0.1
2018-Jun-16 07:58N 37°44' W 122°21'0 0.1
2018-Jun-16 07:28N 37°44' W 122°21'0 0.0
2018-Jun-16 06:58N 37°44' W 122°21'0 0.0
2018-Jun-16 06:28N 37°44' W 122°21'0 0.0
2018-Jun-16 05:58N 37°44' W 122°21'0 0.0
2018-Jun-16 05:28N 37°44' W 122°21'0 0.1
2018-Jun-16 04:58N 37°44' W 122°21'0 0.0
2018-Jun-16 04:28N 37°44' W 122°21'0 0.3
2018-Jun-16 03:58N 37°44' W 122°21'0 0.2
2018-Jun-16 03:28N 37°44' W 122°21'0 0.1
2018-Jun-16 02:58N 37°44' W 122°21'0 0.1
2018-Jun-16 02:28N 37°44' W 122°21'0 0.0
2018-Jun-16 01:58N 37°44' W 122°21'0 0.0
2018-Jun-16 01:28N 37°44' W 122°21'0 0.0
2018-Jun-16 00:58N 37°44' W 122°21'0 0.0
2018-Jun-16 00:28N 37°44' W 122°21'0 0.1
2018-Jun-15 23:58N 37°44' W 122°21'0 0.1
2018-Jun-15 23:28N 37°44' W 122°21'0 0.0
2018-Jun-15 22:58N 37°44' W 122°21'0 0.2
2018-Jun-15 22:28N 37°44' W 122°21'0 0.2
2018-Jun-15 21:58N 37°44' W 122°21'0 0.1
2018-Jun-15 21:28N 37°44' W 122°21'0 0.1
2018-Jun-15 20:58N 37°44' W 122°21'0 0.0
2018-Jun-15 20:28N 37°44' W 122°21'0 0.0
2018-Jun-15 19:58N 37°44' W 122°21'0 0.0
2018-Jun-15 19:28N 37°44' W 122°21'0 0.1
2018-Jun-15 18:58N 37°44' W 122°21'0 0.0
2018-Jun-15 18:28N 37°44' W 122°21'0 0.0
2018-Jun-15 17:58N 37°44' W 122°21'0 0.1
2018-Jun-15 17:28N 37°44' W 122°21'0 0.1
2018-Jun-15 16:58N 37°44' W 122°21'0 0.5
2018-Jun-15 16:28N 37°44' W 122°21'0 0.1
2018-Jun-15 15:58N 37°44' W 122°21'0 0.0
2018-Jun-15 15:28N 37°44' W 122°21'0 0.0
2018-Jun-15 14:58N 37°44' W 122°21'0 0.0
2018-Jun-15 14:28N 37°44' W 122°21'0 0.0
2018-Jun-15 13:58N 37°44' W 122°21'0 0.0
2018-Jun-15 13:28N 37°44' W 122°21'0 0.0
2018-Jun-15 12:58N 37°44' W 122°21'0 0.1
2018-Jun-15 12:28N 37°44' W 122°21'0 0.0
2018-Jun-15 11:58N 37°44' W 122°21'0 0.0
2018-Jun-15 11:28N 37°44' W 122°21'0 0.0
2018-Jun-15 10:58N 37°44' W 122°21'0 0.1
2018-Jun-15 10:28N 37°44' W 122°21'0 0.0
2018-Jun-15 09:58N 37°44' W 122°21'0 0.0
2018-Jun-15 09:28N 37°44' W 122°21'0 0.4
2018-Jun-15 08:58N 37°44' W 122°21'0 0.2
2018-Jun-15 08:28N 37°44' W 122°21'0 0.0
2018-Jun-15 07:58N 37°44' W 122°21'0 0.0
2018-Jun-15 07:28N 37°44' W 122°21'0 0.1
2018-Jun-15 06:58N 37°44' W 122°21'0 0.1
2018-Jun-15 06:28N 37°44' W 122°21'0 0.0
2018-Jun-15 05:58N 37°44' W 122°21'0 0.1
2018-Jun-15 05:28N 37°44' W 122°21'0 0.0
2018-Jun-15 04:58N 37°44' W 122°21'0 0.0
2018-Jun-15 04:28N 37°44' W 122°21'0 0.0
2018-Jun-15 03:58N 37°44' W 122°21'0 0.1
2018-Jun-15 03:28N 37°44' W 122°21'0 0.2
2018-Jun-15 02:58N 37°44' W 122°21'0 0.3
2018-Jun-15 02:28N 37°44' W 122°21'0 0.1
2018-Jun-15 01:58N 37°44' W 122°21'0 0.1
2018-Jun-15 01:28N 37°44' W 122°21'0 0.0
2018-Jun-15 00:58N 37°44' W 122°21'0 0.0
2018-Jun-15 00:28N 37°44' W 122°21'0 0.0
2018-Jun-14 23:58N 37°44' W 122°21'0 0.0
2018-Jun-14 23:28N 37°44' W 122°21'0 0.0
2018-Jun-14 22:58N 37°44' W 122°21'0 0.1
2018-Jun-14 22:28N 37°44' W 122°21'0 0.2
2018-Jun-14 21:52N 37°44' W 122°21'0 0.1
2018-Jun-14 21:28N 37°44' W 122°21'0 0.2
2018-Jun-14 20:58N 37°44' W 122°21'0 0.2
2018-Jun-14 20:28N 37°44' W 122°21'0 0.1
2018-Jun-14 19:58N 37°44' W 122°21'0 0.0
2018-Jun-14 19:28N 37°44' W 122°21'0 0.0
2018-Jun-14 18:58N 37°44' W 122°21'0 0.1
2018-Jun-14 18:28N 37°44' W 122°21'0 0.1
2018-Jun-14 17:58N 37°44' W 122°21'0 0.0
2018-Jun-14 17:28N 37°44' W 122°21'0 0.0
2018-Jun-14 16:58N 37°44' W 122°21'0 0.1
2018-Jun-14 16:28N 37°44' W 122°21'0 0.2
2018-Jun-14 15:58N 37°44' W 122°21'0 0.4
2018-Jun-14 15:28N 37°44' W 122°21'0 0.1
2018-Jun-14 14:58N 37°44' W 122°21'0 0.0
2018-Jun-14 14:28N 37°44' W 122°21'0 0.1
2018-Jun-14 13:58N 37°44' W 122°21'0 0.0
2018-Jun-14 13:28N 37°44' W 122°21'0 0.0
2018-Jun-14 12:58N 37°44' W 122°21'0 0.0
2018-Jun-14 12:28N 37°44' W 122°21'0 0.0
2018-Jun-14 11:58N 37°44' W 122°21'0 0.0
2018-Jun-14 11:28N 37°44' W 122°21'0 0.0
2018-Jun-14 10:58N 37°44' W 122°21'0 0.0
2018-Jun-14 10:28N 37°44' W 122°21'0 0.1
2018-Jun-14 09:58N 37°44' W 122°21'0 0.0
2018-Jun-14 09:28N 37°44' W 122°21'0 0.0
2018-Jun-14 08:58N 37°44' W 122°21'0 0.1
2018-Jun-14 08:28N 37°44' W 122°21'0 0.4
2018-Jun-14 07:58N 37°44' W 122°21'0 0.1
2018-Jun-14 07:28N 37°44' W 122°21'0 0.0
2018-Jun-14 06:58N 37°44' W 122°21'0 0.1
2018-Jun-14 06:28N 37°44' W 122°21'0 0.0
2018-Jun-14 05:58N 37°44' W 122°21'0 0.0
2018-Jun-14 05:28N 37°44' W 122°21'0 0.0
2018-Jun-14 04:58N 37°44' W 122°21'0 0.0
2018-Jun-14 04:28N 37°44' W 122°21'0 0.0
2018-Jun-14 03:58N 37°44' W 122°21'0 0.0
2018-Jun-14 03:28N 37°44' W 122°21'0 0.1
2018-Jun-14 02:58N 37°44' W 122°21'0 0.1
2018-Jun-14 02:28N 37°44' W 122°21'0 0.1
2018-Jun-14 01:58N 37°44' W 122°21'0 0.2
2018-Jun-14 01:28N 37°44' W 122°21'0 0.1
2018-Jun-14 00:58N 37°44' W 122°21'0 0.1
2018-Jun-14 00:28N 37°44' W 122°21'0 0.0
2018-Jun-13 23:58N 37°44' W 122°21'0 0.0
2018-Jun-13 23:25N 37°44' W 122°21'0 0.0
2018-Jun-13 22:58N 37°44' W 122°21'0 0.0
2018-Jun-13 22:28N 37°44' W 122°21'0 0.1
2018-Jun-13 21:58N 37°44' W 122°21'0 0.1
2018-Jun-13 21:28N 37°44' W 122°21'0 0.2
2018-Jun-13 20:58N 37°44' W 122°21'0 0.3
2018-Jun-13 20:28N 37°44' W 122°21'0 0.1
2018-Jun-13 19:58N 37°44' W 122°21'0 0.0
2018-Jun-13 19:28N 37°44' W 122°21'0 0.0
2018-Jun-13 18:58N 37°44' W 122°21'0 0.0
2018-Jun-13 18:28N 37°44' W 122°21'0 0.0
2018-Jun-13 17:58N 37°44' W 122°21'0 0.1
2018-Jun-13 17:28N 37°44' W 122°21'0 0.1
2018-Jun-13 16:58N 37°44' W 122°21'0 0.0
2018-Jun-13 16:28N 37°44' W 122°21'0 0.0
2018-Jun-13 15:58N 37°44' W 122°21'0 0.1
2018-Jun-13 15:28N 37°44' W 122°21'0 0.5
2018-Jun-13 14:58N 37°44' W 122°21'0 0.0
2018-Jun-13 14:28N 37°44' W 122°21'0 0.0
2018-Jun-13 13:58N 37°44' W 122°21'0 0.1
2018-Jun-13 13:28N 37°44' W 122°21'0 0.0
2018-Jun-13 12:58N 37°44' W 122°21'0 0.0
2018-Jun-13 12:28N 37°44' W 122°21'0 0.0
2018-Jun-13 11:58N 37°44' W 122°21'0 0.0
2018-Jun-13 11:28N 37°44' W 122°21'0 0.0
2018-Jun-13 10:58N 37°44' W 122°21'0 0.0
2018-Jun-13 10:28N 37°44' W 122°21'0 0.0
2018-Jun-13 09:58N 37°44' W 122°21'0 0.0
2018-Jun-13 09:28N 37°44' W 122°21'0 0.1
2018-Jun-13 08:58N 37°44' W 122°21'0 0.0
2018-Jun-13 08:28N 37°44' W 122°21'0 0.1
2018-Jun-13 07:58N 37°44' W 122°21'0 0.1
2018-Jun-13 07:25N 37°44' W 122°21'0 0.3
2018-Jun-13 06:58N 37°44' W 122°21'0 0.2
2018-Jun-13 06:28N 37°44' W 122°21'0 0.0
2018-Jun-13 05:58N 37°44' W 122°21'0 0.0
2018-Jun-13 05:28N 37°44' W 122°21'0 0.0
2018-Jun-13 04:58N 37°44' W 122°21'0 0.0
2018-Jun-13 04:25N 37°44' W 122°21'0 0.0
2018-Jun-13 03:58N 37°44' W 122°21'0 0.0
2018-Jun-13 03:28N 37°44' W 122°21'0 0.0
2018-Jun-13 02:58N 37°44' W 122°21'0 0.0
2018-Jun-13 02:28N 37°44' W 122°21'0 0.1
2018-Jun-13 01:58N 37°44' W 122°21'0 0.1
2018-Jun-13 01:28N 37°44' W 122°21'0 0.2
2018-Jun-13 00:58N 37°44' W 122°21'0 0.2
2018-Jun-13 00:28N 37°44' W 122°21'0 0.1
2018-Jun-12 23:58N 37°44' W 122°21'0 0.0
2018-Jun-12 23:28N 37°44' W 122°21'0 0.1
2018-Jun-12 22:58N 37°44' W 122°21'0 0.0
2018-Jun-12 22:28N 37°44' W 122°21'0 0.0
2018-Jun-12 21:58N 37°44' W 122°21'0 0.0
2018-Jun-12 21:28N 37°44' W 122°21'0 0.2
2018-Jun-12 20:58N 37°44' W 122°21'0 0.1
2018-Jun-12 20:28N 37°44' W 122°21'0 0.2
2018-Jun-12 19:58N 37°44' W 122°21'0 0.2
2018-Jun-12 19:28N 37°44' W 122°21'0 0.1
2018-Jun-12 18:58N 37°44' W 122°21'0 0.0
2018-Jun-12 18:28N 37°44' W 122°21'0 0.0
2018-Jun-12 17:58N 37°44' W 122°21'0 0.0
2018-Jun-12 17:28N 37°44' W 122°21'0 0.0
2018-Jun-12 16:58N 37°44' W 122°21'0 0.0
2018-Jun-12 16:28N 37°44' W 122°21'0 0.0
2018-Jun-12 15:58N 37°44' W 122°21'0 0.0
2018-Jun-12 15:28N 37°44' W 122°21'0 0.0
2018-Jun-12 14:58N 37°44' W 122°21'0 0.1
2018-Jun-12 14:28N 37°44' W 122°21'0 0.4
2018-Jun-12 13:58N 37°44' W 122°21'0 0.1
2018-Jun-12 13:28N 37°44' W 122°21'0 0.0
2018-Jun-12 12:58N 37°44' W 122°21'0 0.0
2018-Jun-12 12:28N 37°44' W 122°21'0 0.0
2018-Jun-12 11:58N 37°44' W 122°21'0 0.1
2018-Jun-12 11:28N 37°44' W 122°21'0 0.0
2018-Jun-12 10:58N 37°44' W 122°21'0 0.0
2018-Jun-12 10:28N 37°44' W 122°21'0 0.0
2018-Jun-12 09:58N 37°44' W 122°21'0 0.0
2018-Jun-12 09:28N 37°44' W 122°21'0 0.0
2018-Jun-12 08:58N 37°44' W 122°21'0 0.1
2018-Jun-12 08:28N 37°44' W 122°21'0 0.0
2018-Jun-12 07:58N 37°44' W 122°21'0 0.0
2018-Jun-12 07:28N 37°44' W 122°21'0 0.1
2018-Jun-12 06:58N 37°44' W 122°21'0 0.3
2018-Jun-12 06:28N 37°44' W 122°21'0 0.2
2018-Jun-12 05:58N 37°44' W 122°21'0 0.1
2018-Jun-12 05:28N 37°44' W 122°21'0 0.1
2018-Jun-12 04:58N 37°44' W 122°21'0 0.0
2018-Jun-12 04:28N 37°44' W 122°21'0 0.0
2018-Jun-12 03:58N 37°44' W 122°21'0 0.0
2018-Jun-12 03:28N 37°44' W 122°21'0 0.0
2018-Jun-12 02:58N 37°44' W 122°21'0 0.0
2018-Jun-12 02:25N 37°44' W 122°21'0 0.0
2018-Jun-12 01:58N 37°44' W 122°21'0 0.1
2018-Jun-12 01:28N 37°44' W 122°21'0 0.1
2018-Jun-12 00:58N 37°44' W 122°21'0 0.1
2018-Jun-12 00:28N 37°44' W 122°21'0 0.2
2018-Jun-11 23:58N 37°44' W 122°21'0 0.2
2018-Jun-11 23:28N 37°44' W 122°21'0 0.0
2018-Jun-11 22:58N 37°44' W 122°21'0 0.1
2018-Jun-11 22:28N 37°44' W 122°21'0 0.0
2018-Jun-11 21:58N 37°44' W 122°21'0 0.0
2018-Jun-11 21:28N 37°44' W 122°21'0 0.1
2018-Jun-11 20:46N 37°44' W 122°21'0 0.0
2018-Jun-11 20:28N 37°44' W 122°21'0 0.1
2018-Jun-11 19:58N 37°44' W 122°21'0 0.4
2018-Jun-11 19:28N 37°44' W 122°21'0 0.3
2018-Jun-11 18:58N 37°44' W 122°21'0 0.1
2018-Jun-11 18:28N 37°44' W 122°21'0 0.0
2018-Jun-11 17:58N 37°44' W 122°21'0 0.1
2018-Jun-11 17:28N 37°44' W 122°21'0 0.1
2018-Jun-11 16:58N 37°44' W 122°21'0 0.1
2018-Jun-11 16:28N 37°44' W 122°21'0 0.1
2018-Jun-11 15:58N 37°44' W 122°21'0 0.0
2018-Jun-11 15:28N 37°44' W 122°21'0 0.0
2018-Jun-11 14:58N 37°44' W 122°21'0 0.0
2018-Jun-11 14:28N 37°44' W 122°21'0 0.1
2018-Jun-11 13:58N 37°44' W 122°21'0 0.1
2018-Jun-11 13:28N 37°44' W 122°21'0 0.4
2018-Jun-11 12:58N 37°44' W 122°21'0 0.1
2018-Jun-11 12:28N 37°44' W 122°21'0 0.0
2018-Jun-11 11:58N 37°44' W 122°21'0 0.0
2018-Jun-11 11:28N 37°44' W 122°21'0 0.1
2018-Jun-11 10:58N 37°44' W 122°21'0 0.0
2018-Jun-11 10:28N 37°44' W 122°21'0 0.0
2018-Jun-11 09:58N 37°44' W 122°21'0 0.0
2018-Jun-11 09:28N 37°44' W 122°21'0 0.0
2018-Jun-11 08:58N 37°44' W 122°21'0 0.0
2018-Jun-11 08:28N 37°44' W 122°21'0 0.1
2018-Jun-11 07:58N 37°44' W 122°21'0 0.0
2018-Jun-11 07:28N 37°44' W 122°21'0 0.0
2018-Jun-11 06:58N 37°44' W 122°21'0 0.2
2018-Jun-11 06:28N 37°44' W 122°21'0 0.3
2018-Jun-11 05:58N 37°44' W 122°21'0 0.2
2018-Jun-11 05:28N 37°44' W 122°21'0 0.0
2018-Jun-11 04:58N 37°44' W 122°21'0 0.1
2018-Jun-11 04:28N 37°44' W 122°21'0 0.0
2018-Jun-11 03:58N 37°44' W 122°21'0 0.1
2018-Jun-11 03:28N 37°44' W 122°21'0 0.0
2018-Jun-11 02:58N 37°44' W 122°21'0 0.1
2018-Jun-11 02:28N 37°44' W 122°21'0 0.0
2018-Jun-11 01:58N 37°44' W 122°21'0 0.0
2018-Jun-11 01:28N 37°44' W 122°21'0 0.0
2018-Jun-11 00:58N 37°44' W 122°21'0 0.0
2018-Jun-11 00:28N 37°44' W 122°21'0 0.1
2018-Jun-10 23:58N 37°44' W 122°21'0 0.1
2018-Jun-10 23:28N 37°44' W 122°21'0 0.3
2018-Jun-10 22:58N 37°44' W 122°21'0 0.2
2018-Jun-10 22:28N 37°44' W 122°21'0 0.1
2018-Jun-10 21:55N 37°44' W 122°21'0 0.0
2018-Jun-10 21:28N 37°44' W 122°21'0 0.0
2018-Jun-10 20:58N 37°44' W 122°21'0 0.0
2018-Jun-10 20:28N 37°44' W 122°21'0 0.1
2018-Jun-10 19:52N 37°44' W 122°21'  
Track history (hours):
 
Tides and Currents Weather Stations Pressure Air Temp Water Temp Dewpoint Dewpoint Depression Visibility Wind Speed Wind Dir Waves Ship Positions

Lumen N

Last reported at 2018-Jun-20 19:40 UTC. Time now 2018-Jun-20 20:38 UTC.
Position N 31°58' W 124°04'.

Length 228 m; draft 8.2 m.

Type: Tanker. MMSI: 355364000.

Date/timePositionNaut miles runAvg speedWind from/ knotsBaromVisibWave heightAir tempDewpointWater temp
2018-Jun-20 19:40N 31°58' W 124°04'212.3
2018-Jun-20 19:30N 31°59' W 124°05'812.1
2018-Jun-20 18:50N 32°04' W 124°12'4 6.8
2018-Jun-20 18:11N 32°07' W 124°16'2913.6
2018-Jun-20 16:03N 32°30' W 124°38'1314.1
2018-Jun-20 15:08N 32°42' W 124°43'213.5
2018-Jun-20 14:59N 32°44' W 124°44'613.6
2018-Jun-20 14:30N 32°50' W 124°47'1613.5
2018-Jun-20 13:18N 33°05' W 124°54'613.2
2018-Jun-20 12:50N 33°11' W 124°56'613.5
2018-Jun-20 12:24N 33°16' W 124°59'613.5
2018-Jun-20 11:59N 33°22' W 125°01'713.4
2018-Jun-20 11:29N 33°28' W 125°04'713.5
2018-Jun-20 11:00N 33°34' W 125°07'713.2
2018-Jun-20 10:30N 33°40' W 125°09'713.2
2018-Jun-20 10:00N 33°46' W 125°12'712.8
2018-Jun-20 09:26N 33°53' W 125°15'612.9
2018-Jun-20 09:00N 33°58' W 125°18'713.0
2018-Jun-20 08:29N 34°04' W 125°21'613.0
2018-Jun-20 08:00N 34°10' W 125°23'713.4
2018-Jun-20 07:26N 34°17' W 125°26'1213.3
2018-Jun-20 06:32N 34°29' W 125°32'313.3
2018-Jun-20 06:18N 34°32' W 125°33'513.4
2018-Jun-20 05:57N 34°36' W 125°35'613.5
2018-Jun-20 05:30N 34°42' W 125°38'2313.3
2018-Jun-20 03:44N 35°04' W 125°46'4213.4
2018-Jun-20 00:37N 35°36' W 125°12'613.3
2018-Jun-20 00:10N 35°40' W 125°08'513.5
2018-Jun-19 23:49N 35°44' W 125°04'413.9
2018-Jun-19 23:30N 35°47' W 125°00'713.8
2018-Jun-19 22:59N 35°52' W 124°55'813.6
2018-Jun-19 22:24N 35°58' W 124°48'513.4
2018-Jun-19 22:00N 36°02' W 124°44'813.2
2018-Jun-19 21:22N 36°09' W 124°37'512.8
2018-Jun-19 21:00N 36°12' W 124°33'1612.6
2018-Jun-19 19:42N 36°24' W 124°20'1412.9
2018-Jun-19 18:39N 36°35' W 124°09'212.8
2018-Jun-19 18:31N 36°36' W 124°07'712.7
2018-Jun-19 17:55N 36°42' W 124°01'613.0
2018-Jun-19 17:27N 36°46' W 123°56'713.3
2018-Jun-19 16:57N 36°51' W 123°51'613.4
2018-Jun-19 16:29N 36°56' W 123°46'713.4
2018-Jun-19 15:56N 37°02' W 123°40'913.3
2018-Jun-19 15:18N 37°08' W 123°33'413.0
2018-Jun-19 15:00N 37°11' W 123°29'613.0
2018-Jun-19 14:30N 37°16' W 123°24'1613.3
2018-Jun-19 13:17N 37°28' W 123°11'513.4
2018-Jun-19 12:56N 37°32' W 123°07'613.1
2018-Jun-19 12:27N 37°36' W 123°01'613.2
2018-Jun-19 12:00N 37°39' W 122°55'713.0
2018-Jun-19 11:30N 37°43' W 122°48'612.7
2018-Jun-19 11:00N 37°46' W 122°41'611.4
2018-Jun-19 10:30N 37°47' W 122°34'611.8
2018-Jun-19 10:00N 37°50' W 122°27'510.4
2018-Jun-19 09:30N 37°47' W 122°22'2 4.0
2018-Jun-19 08:58N 37°45' W 122°20'0 0.0
2018-Jun-19 08:25N 37°45' W 122°20'0 0.1
2018-Jun-19 07:58N 37°45' W 122°20'0 0.1
2018-Jun-19 07:25N 37°45' W 122°20'0 0.2
2018-Jun-19 06:58N 37°45' W 122°20'0 0.1
2018-Jun-19 06:28N 37°45' W 122°20'0 0.0
2018-Jun-19 05:58N 37°45' W 122°20'0 0.1
2018-Jun-19 05:28N 37°45' W 122°21'0 0.0
2018-Jun-19 04:58N 37°45' W 122°21'0 0.0
2018-Jun-19 04:28N 37°45' W 122°21'0 0.0
2018-Jun-19 03:58N 37°45' W 122°21'0 0.0
2018-Jun-19 03:28N 37°45' W 122°21'0 0.1
2018-Jun-19 02:58N 37°45' W 122°20'0 0.0
2018-Jun-19 02:28N 37°45' W 122°20'0 0.2
2018-Jun-19 01:58N 37°45' W 122°20'0 0.3
2018-Jun-19 01:28N 37°45' W 122°20'0 0.0
2018-Jun-19 00:58N 37°45' W 122°20'0 0.0
2018-Jun-19 00:28N 37°45' W 122°20'0 0.0
2018-Jun-18 23:55N 37°45' W 122°20'0 0.1
2018-Jun-18 23:28N 37°45' W 122°20'2 3.9
2018-Jun-18 23:01N 37°46' W 122°22'714.1
2018-Jun-18 22:30N 37°53' W 122°25'611.3
2018-Jun-18 22:01N 37°58' W 122°26'612.4
2018-Jun-18 21:30N 38°03' W 122°21'612.0
2018-Jun-18 21:00N 38°04' W 122°13'4 0.1
2018-Jun-17 10:30N 38°02' W 122°08'3 4.1
2018-Jun-17 09:52N 38°03' W 122°11'4 9.7
2018-Jun-17 09:30N 38°04' W 122°15'4 8.5
2018-Jun-17 08:59N 38°03' W 122°21'610.2
2018-Jun-17 08:24N 37°58' W 122°26'510.8
2018-Jun-17 07:59N 37°54' W 122°26'510.2
2018-Jun-17 07:30N 37°49' W 122°24'4 8.6
2018-Jun-17 07:01N 37°45' W 122°22'1 2.6
2018-Jun-17 06:28N 37°44' W 122°21'0 0.0
2018-Jun-17 05:58N 37°44' W 122°21'0 0.1
2018-Jun-17 05:28N 37°44' W 122°21'0 0.2
2018-Jun-17 04:58N 37°44' W 122°21'0 0.2
2018-Jun-17 04:28N 37°44' W 122°21'0 0.1
2018-Jun-17 03:58N 37°44' W 122°21'0 0.1
2018-Jun-17 03:28N 37°44' W 122°21'0 0.0
2018-Jun-17 02:58N 37°44' W 122°21'0 0.0
2018-Jun-17 02:28N 37°44' W 122°21'0 0.0
2018-Jun-17 01:58N 37°44' W 122°21'0 0.0
2018-Jun-17 01:28N 37°44' W 122°21'0 0.1
2018-Jun-17 00:58N 37°44' W 122°21'0 0.0
2018-Jun-17 00:28N 37°44' W 122°21'0 0.1
2018-Jun-16 23:58N 37°44' W 122°21'0 0.1
2018-Jun-16 23:28N 37°44' W 122°21'0 0.2
2018-Jun-16 22:58N 37°44' W 122°21'0 0.1
2018-Jun-16 22:28N 37°44' W 122°21'0 0.0
2018-Jun-16 21:58N 37°44' W 122°21'0 0.0
2018-Jun-16 21:28N 37°44' W 122°21'0 0.0
2018-Jun-16 20:58N 37°44' W 122°21'0 0.0
2018-Jun-16 20:28N 37°44' W 122°21'0 0.0
2018-Jun-16 19:58N 37°44' W 122°21'0 0.0
2018-Jun-16 19:28N 37°44' W 122°21'0 0.0
2018-Jun-16 18:58N 37°44' W 122°21'0 0.0
2018-Jun-16 18:28N 37°44' W 122°21'0 0.0
2018-Jun-16 17:58N 37°44' W 122°21'0 0.1
2018-Jun-16 17:28N 37°44' W 122°21'0 0.4
2018-Jun-16 16:58N 37°44' W 122°21'0 0.1
2018-Jun-16 16:28N 37°44' W 122°21'0 0.0
2018-Jun-16 15:58N 37°44' W 122°21'0 0.0
2018-Jun-16 15:28N 37°44' W 122°21'0 0.0
2018-Jun-16 14:58N 37°44' W 122°21'0 0.0
2018-Jun-16 14:28N 37°44' W 122°21'0 0.0
2018-Jun-16 13:49N 37°44' W 122°21'0 0.0
2018-Jun-16 13:28N 37°44' W 122°21'0 0.1
2018-Jun-16 12:58N 37°44' W 122°21'0 0.0
2018-Jun-16 12:28N 37°44' W 122°21'0 0.0
2018-Jun-16 11:58N 37°44' W 122°21'0 0.0
2018-Jun-16 11:28N 37°44' W 122°21'0 0.0
2018-Jun-16 10:58N 37°44' W 122°21'0 0.1
2018-Jun-16 10:28N 37°44' W 122°21'0 0.2
2018-Jun-16 09:58N 37°44' W 122°21'0 0.3
2018-Jun-16 09:28N 37°44' W 122°21'0 0.1
2018-Jun-16 08:58N 37°44' W 122°21'0 0.1
2018-Jun-16 08:28N 37°44' W 122°21'0 0.1
2018-Jun-16 07:58N 37°44' W 122°21'0 0.1
2018-Jun-16 07:28N 37°44' W 122°21'0 0.0
2018-Jun-16 06:58N 37°44' W 122°21'0 0.0
2018-Jun-16 06:28N 37°44' W 122°21'0 0.0
2018-Jun-16 05:58N 37°44' W 122°21'0 0.0
2018-Jun-16 05:28N 37°44' W 122°21'0 0.1
2018-Jun-16 04:58N 37°44' W 122°21'0 0.0
2018-Jun-16 04:28N 37°44' W 122°21'0 0.3
2018-Jun-16 03:58N 37°44' W 122°21'0 0.2
2018-Jun-16 03:28N 37°44' W 122°21'0 0.1
2018-Jun-16 02:58N 37°44' W 122°21'0 0.1
2018-Jun-16 02:28N 37°44' W 122°21'0 0.0
2018-Jun-16 01:58N 37°44' W 122°21'0 0.0
2018-Jun-16 01:28N 37°44' W 122°21'0 0.0
2018-Jun-16 00:58N 37°44' W 122°21'0 0.0
2018-Jun-16 00:28N 37°44' W 122°21'0 0.1
2018-Jun-15 23:58N 37°44' W 122°21'0 0.1
2018-Jun-15 23:28N 37°44' W 122°21'0 0.0
2018-Jun-15 22:58N 37°44' W 122°21'0 0.2
2018-Jun-15 22:28N 37°44' W 122°21'0 0.2
2018-Jun-15 21:58N 37°44' W 122°21'0 0.1
2018-Jun-15 21:28N 37°44' W 122°21'0 0.1
2018-Jun-15 20:58N 37°44' W 122°21'0 0.0
2018-Jun-15 20:28N 37°44' W 122°21'0 0.0
2018-Jun-15 19:58N 37°44' W 122°21'0 0.0
2018-Jun-15 19:28N 37°44' W 122°21'0 0.1
2018-Jun-15 18:58N 37°44' W 122°21'0 0.0
2018-Jun-15 18:28N 37°44' W 122°21'0 0.0
2018-Jun-15 17:58N 37°44' W 122°21'0 0.1
2018-Jun-15 17:28N 37°44' W 122°21'0 0.1
2018-Jun-15 16:58N 37°44' W 122°21'0 0.5
2018-Jun-15 16:28N 37°44' W 122°21'0 0.1
2018-Jun-15 15:58N 37°44' W 122°21'0 0.0
2018-Jun-15 15:28N 37°44' W 122°21'0 0.0
2018-Jun-15 14:58N 37°44' W 122°21'0 0.0
2018-Jun-15 14:28N 37°44' W 122°21'0 0.0
2018-Jun-15 13:58N 37°44' W 122°21'0 0.0
2018-Jun-15 13:28N 37°44' W 122°21'0 0.0
2018-Jun-15 12:58N 37°44' W 122°21'0 0.1
2018-Jun-15 12:28N 37°44' W 122°21'0 0.0
2018-Jun-15 11:58N 37°44' W 122°21'0 0.0
2018-Jun-15 11:28N 37°44' W 122°21'0 0.0
2018-Jun-15 10:58N 37°44' W 122°21'0 0.1
2018-Jun-15 10:28N 37°44' W 122°21'0 0.0
2018-Jun-15 09:58N 37°44' W 122°21'0 0.0
2018-Jun-15 09:28N 37°44' W 122°21'0 0.4
2018-Jun-15 08:58N 37°44' W 122°21'0 0.2
2018-Jun-15 08:28N 37°44' W 122°21'0 0.0
2018-Jun-15 07:58N 37°44' W 122°21'0 0.0
2018-Jun-15 07:28N 37°44' W 122°21'0 0.1
2018-Jun-15 06:58N 37°44' W 122°21'0 0.1
2018-Jun-15 06:28N 37°44' W 122°21'0 0.0
2018-Jun-15 05:58N 37°44' W 122°21'0 0.1
2018-Jun-15 05:28N 37°44' W 122°21'0 0.0
2018-Jun-15 04:58N 37°44' W 122°21'0 0.0
2018-Jun-15 04:28N 37°44' W 122°21'0 0.0
2018-Jun-15 03:58N 37°44' W 122°21'0 0.1
2018-Jun-15 03:28N 37°44' W 122°21'0 0.2
2018-Jun-15 02:58N 37°44' W 122°21'0 0.3
2018-Jun-15 02:28N 37°44' W 122°21'0 0.1
2018-Jun-15 01:58N 37°44' W 122°21'0 0.1
2018-Jun-15 01:28N 37°44' W 122°21'0 0.0
2018-Jun-15 00:58N 37°44' W 122°21'0 0.0
2018-Jun-15 00:28N 37°44' W 122°21'0 0.0
2018-Jun-14 23:58N 37°44' W 122°21'0 0.0
2018-Jun-14 23:28N 37°44' W 122°21'0 0.0
2018-Jun-14 22:58N 37°44' W 122°21'0 0.1
2018-Jun-14 22:28N 37°44' W 122°21'0 0.2
2018-Jun-14 21:52N 37°44' W 122°21'0 0.1
2018-Jun-14 21:28N 37°44' W 122°21'0 0.2
2018-Jun-14 20:58N 37°44' W 122°21'0 0.2
2018-Jun-14 20:28N 37°44' W 122°21'0 0.1
2018-Jun-14 19:58N 37°44' W 122°21'0 0.0
2018-Jun-14 19:28N 37°44' W 122°21'0 0.0
2018-Jun-14 18:58N 37°44' W 122°21'0 0.1
2018-Jun-14 18:28N 37°44' W 122°21'0 0.1
2018-Jun-14 17:58N 37°44' W 122°21'0 0.0
2018-Jun-14 17:28N 37°44' W 122°21'0 0.0
2018-Jun-14 16:58N 37°44' W 122°21'0 0.1
2018-Jun-14 16:28N 37°44' W 122°21'0 0.2
2018-Jun-14 15:58N 37°44' W 122°21'0 0.4
2018-Jun-14 15:28N 37°44' W 122°21'0 0.1
2018-Jun-14 14:58N 37°44' W 122°21'0 0.0
2018-Jun-14 14:28N 37°44' W 122°21'0 0.1
2018-Jun-14 13:58N 37°44' W 122°21'0 0.0
2018-Jun-14 13:28N 37°44' W 122°21'0 0.0
2018-Jun-14 12:58N 37°44' W 122°21'0 0.0
2018-Jun-14 12:28N 37°44' W 122°21'0 0.0
2018-Jun-14 11:58N 37°44' W 122°21'0 0.0
2018-Jun-14 11:28N 37°44' W 122°21'0 0.0
2018-Jun-14 10:58N 37°44' W 122°21'0 0.0
2018-Jun-14 10:28N 37°44' W 122°21'0 0.1
2018-Jun-14 09:58N 37°44' W 122°21'0 0.0
2018-Jun-14 09:28N 37°44' W 122°21'0 0.0
2018-Jun-14 08:58N 37°44' W 122°21'0 0.1
2018-Jun-14 08:28N 37°44' W 122°21'0 0.4
2018-Jun-14 07:58N 37°44' W 122°21'0 0.1
2018-Jun-14 07:28N 37°44' W 122°21'0 0.0
2018-Jun-14 06:58N 37°44' W 122°21'0 0.1
2018-Jun-14 06:28N 37°44' W 122°21'0 0.0
2018-Jun-14 05:58N 37°44' W 122°21'0 0.0
2018-Jun-14 05:28N 37°44' W 122°21'0 0.0
2018-Jun-14 04:58N 37°44' W 122°21'0 0.0
2018-Jun-14 04:28N 37°44' W 122°21'0 0.0
2018-Jun-14 03:58N 37°44' W 122°21'0 0.0
2018-Jun-14 03:28N 37°44' W 122°21'0 0.1
2018-Jun-14 02:58N 37°44' W 122°21'0 0.1
2018-Jun-14 02:28N 37°44' W 122°21'0 0.1
2018-Jun-14 01:58N 37°44' W 122°21'0 0.2
2018-Jun-14 01:28N 37°44' W 122°21'0 0.1
2018-Jun-14 00:58N 37°44' W 122°21'0 0.1
2018-Jun-14 00:28N 37°44' W 122°21'0 0.0
2018-Jun-13 23:58N 37°44' W 122°21'0 0.0
2018-Jun-13 23:25N 37°44' W 122°21'0 0.0
2018-Jun-13 22:58N 37°44' W 122°21'0 0.0
2018-Jun-13 22:28N 37°44' W 122°21'0 0.1
2018-Jun-13 21:58N 37°44' W 122°21'0 0.1
2018-Jun-13 21:28N 37°44' W 122°21'0 0.2
2018-Jun-13 20:58N 37°44' W 122°21'0 0.3
2018-Jun-13 20:28N 37°44' W 122°21'0 0.1
2018-Jun-13 19:58N 37°44' W 122°21'0 0.0
2018-Jun-13 19:28N 37°44' W 122°21'0 0.0
2018-Jun-13 18:58N 37°44' W 122°21'0 0.0
2018-Jun-13 18:28N 37°44' W 122°21'0 0.0
2018-Jun-13 17:58N 37°44' W 122°21'0 0.1
2018-Jun-13 17:28N 37°44' W 122°21'0 0.1
2018-Jun-13 16:58N 37°44' W 122°21'0 0.0
2018-Jun-13 16:28N 37°44' W 122°21'0 0.0
2018-Jun-13 15:58N 37°44' W 122°21'0 0.1
2018-Jun-13 15:28N 37°44' W 122°21'0 0.5
2018-Jun-13 14:58N 37°44' W 122°21'0 0.0
2018-Jun-13 14:28N 37°44' W 122°21'0 0.0
2018-Jun-13 13:58N 37°44' W 122°21'0 0.1
2018-Jun-13 13:28N 37°44' W 122°21'0 0.0
2018-Jun-13 12:58N 37°44' W 122°21'0 0.0
2018-Jun-13 12:28N 37°44' W 122°21'0 0.0
2018-Jun-13 11:58N 37°44' W 122°21'0 0.0
2018-Jun-13 11:28N 37°44' W 122°21'0 0.0
2018-Jun-13 10:58N 37°44' W 122°21'0 0.0
2018-Jun-13 10:28N 37°44' W 122°21'0 0.0
2018-Jun-13 09:58N 37°44' W 122°21'0 0.0
2018-Jun-13 09:28N 37°44' W 122°21'0 0.1
2018-Jun-13 08:58N 37°44' W 122°21'0 0.0
2018-Jun-13 08:28N 37°44' W 122°21'0 0.1
2018-Jun-13 07:58N 37°44' W 122°21'0 0.1
2018-Jun-13 07:25N 37°44' W 122°21'0 0.3
2018-Jun-13 06:58N 37°44' W 122°21'0 0.2
2018-Jun-13 06:28N 37°44' W 122°21'0 0.0
2018-Jun-13 05:58N 37°44' W 122°21'0 0.0
2018-Jun-13 05:28N 37°44' W 122°21'0 0.0
2018-Jun-13 04:58N 37°44' W 122°21'0 0.0
2018-Jun-13 04:25N 37°44' W 122°21'0 0.0
2018-Jun-13 03:58N 37°44' W 122°21'0 0.0
2018-Jun-13 03:28N 37°44' W 122°21'0 0.0
2018-Jun-13 02:58N 37°44' W 122°21'0 0.0
2018-Jun-13 02:28N 37°44' W 122°21'0 0.1
2018-Jun-13 01:58N 37°44' W 122°21'0 0.1
2018-Jun-13 01:28N 37°44' W 122°21'0 0.2
2018-Jun-13 00:58N 37°44' W 122°21'0 0.2
2018-Jun-13 00:28N 37°44' W 122°21'0 0.1
2018-Jun-12 23:58N 37°44' W 122°21'0 0.0
2018-Jun-12 23:28N 37°44' W 122°21'0 0.1
2018-Jun-12 22:58N 37°44' W 122°21'0 0.0
2018-Jun-12 22:28N 37°44' W 122°21'0 0.0
2018-Jun-12 21:58N 37°44' W 122°21'0 0.0
2018-Jun-12 21:28N 37°44' W 122°21'0 0.2
2018-Jun-12 20:58N 37°44' W 122°21'0 0.1
2018-Jun-12 20:28N 37°44' W 122°21'0 0.2
2018-Jun-12 19:58N 37°44' W 122°21'0 0.2
2018-Jun-12 19:28N 37°44' W 122°21'0 0.1
2018-Jun-12 18:58N 37°44' W 122°21'0 0.0
2018-Jun-12 18:28N 37°44' W 122°21'0 0.0
2018-Jun-12 17:58N 37°44' W 122°21'0 0.0
2018-Jun-12 17:28N 37°44' W 122°21'0 0.0
2018-Jun-12 16:58N 37°44' W 122°21'0 0.0
2018-Jun-12 16:28N 37°44' W 122°21'0 0.0
2018-Jun-12 15:58N 37°44' W 122°21'0 0.0
2018-Jun-12 15:28N 37°44' W 122°21'0 0.0
2018-Jun-12 14:58N 37°44' W 122°21'0 0.1
2018-Jun-12 14:28N 37°44' W 122°21'0 0.4
2018-Jun-12 13:58N 37°44' W 122°21'0 0.1
2018-Jun-12 13:28N 37°44' W 122°21'0 0.0
2018-Jun-12 12:58N 37°44' W 122°21'0 0.0
2018-Jun-12 12:28N 37°44' W 122°21'0 0.0
2018-Jun-12 11:58N 37°44' W 122°21'0 0.1
2018-Jun-12 11:28N 37°44' W 122°21'0 0.0
2018-Jun-12 10:58N 37°44' W 122°21'0 0.0
2018-Jun-12 10:28N 37°44' W 122°21'0 0.0
2018-Jun-12 09:58N 37°44' W 122°21'0 0.0
2018-Jun-12 09:28N 37°44' W 122°21'0 0.0
2018-Jun-12 08:58N 37°44' W 122°21'0 0.1
2018-Jun-12 08:28N 37°44' W 122°21'0 0.0
2018-Jun-12 07:58N 37°44' W 122°21'0 0.0
2018-Jun-12 07:28N 37°44' W 122°21'0 0.1
2018-Jun-12 06:58N 37°44' W 122°21'0 0.3
2018-Jun-12 06:28N 37°44' W 122°21'0 0.2
2018-Jun-12 05:58N 37°44' W 122°21'0 0.1
2018-Jun-12 05:28N 37°44' W 122°21'0 0.1
2018-Jun-12 04:58N 37°44' W 122°21'0 0.0
2018-Jun-12 04:28N 37°44' W 122°21'0 0.0
2018-Jun-12 03:58N 37°44' W 122°21'0 0.0
2018-Jun-12 03:28N 37°44' W 122°21'0 0.0
2018-Jun-12 02:58N 37°44' W 122°21'0 0.0
2018-Jun-12 02:25N 37°44' W 122°21'0 0.0
2018-Jun-12 01:58N 37°44' W 122°21'0 0.1
2018-Jun-12 01:28N 37°44' W 122°21'0 0.1
2018-Jun-12 00:58N 37°44' W 122°21'0 0.1
2018-Jun-12 00:28N 37°44' W 122°21'0 0.2
2018-Jun-11 23:58N 37°44' W 122°21'0 0.2
2018-Jun-11 23:28N 37°44' W 122°21'0 0.0
2018-Jun-11 22:58N 37°44' W 122°21'0 0.1
2018-Jun-11 22:28N 37°44' W 122°21'0 0.0
2018-Jun-11 21:58N 37°44' W 122°21'0 0.0
2018-Jun-11 21:28N 37°44' W 122°21'0 0.1
2018-Jun-11 20:46N 37°44' W 122°21'0 0.0
2018-Jun-11 20:28N 37°44' W 122°21'0 0.1
2018-Jun-11 19:58N 37°44' W 122°21'0 0.4
2018-Jun-11 19:28N 37°44' W 122°21'0 0.3
2018-Jun-11 18:58N 37°44' W 122°21'0 0.1
2018-Jun-11 18:28N 37°44' W 122°21'0 0.0
2018-Jun-11 17:58N 37°44' W 122°21'0 0.1
2018-Jun-11 17:28N 37°44' W 122°21'0 0.1
2018-Jun-11 16:58N 37°44' W 122°21'0 0.1
2018-Jun-11 16:28N 37°44' W 122°21'0 0.1
2018-Jun-11 15:58N 37°44' W 122°21'0 0.0
2018-Jun-11 15:28N 37°44' W 122°21'0 0.0
2018-Jun-11 14:58N 37°44' W 122°21'0 0.0
2018-Jun-11 14:28N 37°44' W 122°21'0 0.1
2018-Jun-11 13:58N 37°44' W 122°21'0 0.1
2018-Jun-11 13:28N 37°44' W 122°21'0 0.4
2018-Jun-11 12:58N 37°44' W 122°21'0 0.1
2018-Jun-11 12:28N 37°44' W 122°21'0 0.0
2018-Jun-11 11:58N 37°44' W 122°21'0 0.0
2018-Jun-11 11:28N 37°44' W 122°21'0 0.1
2018-Jun-11 10:58N 37°44' W 122°21'0 0.0
2018-Jun-11 10:28N 37°44' W 122°21'0 0.0
2018-Jun-11 09:58N 37°44' W 122°21'0 0.0
2018-Jun-11 09:28N 37°44' W 122°21'0 0.0
2018-Jun-11 08:58N 37°44' W 122°21'0 0.0
2018-Jun-11 08:28N 37°44' W 122°21'0 0.1
2018-Jun-11 07:58N 37°44' W 122°21'0 0.0
2018-Jun-11 07:28N 37°44' W 122°21'0 0.0
2018-Jun-11 06:58N 37°44' W 122°21'0 0.2
2018-Jun-11 06:28N 37°44' W 122°21'0 0.3
2018-Jun-11 05:58N 37°44' W 122°21'0 0.2
2018-Jun-11 05:28N 37°44' W 122°21'0 0.0
2018-Jun-11 04:58N 37°44' W 122°21'0 0.1
2018-Jun-11 04:28N 37°44' W 122°21'0 0.0
2018-Jun-11 03:58N 37°44' W 122°21'0 0.1
2018-Jun-11 03:28N 37°44' W 122°21'0 0.0
2018-Jun-11 02:58N 37°44' W 122°21'0 0.1
2018-Jun-11 02:28N 37°44' W 122°21'0 0.0
2018-Jun-11 01:58N 37°44' W 122°21'0 0.0
2018-Jun-11 01:28N 37°44' W 122°21'0 0.0
2018-Jun-11 00:58N 37°44' W 122°21'0 0.0
2018-Jun-11 00:28N 37°44' W 122°21'0 0.1
2018-Jun-10 23:58N 37°44' W 122°21'0 0.1
2018-Jun-10 23:28N 37°44' W 122°21'0 0.3
2018-Jun-10 22:58N 37°44' W 122°21'0 0.2
2018-Jun-10 22:28N 37°44' W 122°21'0 0.1
2018-Jun-10 21:55N 37°44' W 122°21'0 0.0
2018-Jun-10 21:28N 37°44' W 122°21'0 0.0
2018-Jun-10 20:58N 37°44' W 122°21'0 0.0
2018-Jun-10 20:28N 37°44' W 122°21'0 0.1
2018-Jun-10 19:52N 37°44' W 122°21'  

Dump ship's entire track history